Time;durP1;ratioP1;P1;durP2;ratioP2;P2;SDS_P1;SDS_P2;PMS_P1;PMS_P2;Temp;Humidity;BMP_temperature;BMP_pressure;BME280_temperature;BME280_humidity;BME280_pressure;Samples;Min_cycle;Max_cycle;Signal;HPM_P1;HPM_P2
2023/07/06 00:02:00;;;;;;;11.13;4.85;;;;;;;;;;5098575;28;21203;-66
2023/07/06 00:04:27;;;;;;;12.38;4.93;;;;;;;;;;5096121;28;20047;-66
2023/07/06 00:06:55;;;;;;;10.50;4.70;;;;;;;;;;5096658;28;20096;-66
2023/07/06 00:09:22;;;;;;;8.55;4.85;;;;;;;;;;5131562;27;20055;-66
2023/07/06 00:11:48;;;;;;;7.80;4.70;;;;;;;;;;5096035;28;20043;-66
2023/07/06 00:14:17;;;;;;;9.73;5.25;;;;;;;;;;5100802;28;20032;-66
2023/07/06 00:16:46;;;;;;;11.98;4.88;;;;;;;;;;5103472;28;20036;-66
2023/07/06 00:19:17;;;;;;;8.93;5.32;;;;;;;;;;5102817;28;20123;-66
2023/07/06 00:21:44;;;;;;;8.40;5.05;;;;;;;;;;5081369;28;20433;-66
2023/07/06 00:24:10;;;;;;;13.55;6.78;;;;;;;;;;5100180;28;20123;-66
2023/07/06 00:26:36;;;;;;;12.88;5.55;;;;;;;;;;5102762;28;20135;-66
2023/07/06 00:29:04;;;;;;;8.77;4.80;;;;;;;;;;5105207;28;20380;-66
2023/07/06 00:31:40;;;;;;;9.40;5.00;;;;;;;;;;5103265;28;20067;-66
2023/07/06 00:34:08;;;;;;;8.45;4.78;;;;;;;;;;5103048;28;20055;-66
2023/07/06 00:36:37;;;;;;;7.50;4.90;;;;;;;;;;5101527;28;20130;-66
2023/07/06 00:39:04;;;;;;;9.05;5.60;;;;;;;;;;5103396;28;20130;-66
2023/07/06 00:41:31;;;;;;;9.35;4.93;;;;;;;;;;5101518;28;20150;-66
2023/07/06 00:43:58;;;;;;;12.60;5.00;;;;;;;;;;5099320;28;20043;-66
2023/07/06 00:46:29;;;;;;;7.78;4.80;;;;;;;;;;5099366;28;20064;-66
2023/07/06 00:48:57;;;;;;;11.55;5.05;;;;;;;;;;5096645;28;20051;-66
2023/07/06 00:51:27;;;;;;;11.13;5.28;;;;;;;;;;5097552;28;20149;-66
2023/07/06 00:53:57;;;;;;;7.40;4.90;;;;;;;;;;5097693;27;20044;-66
2023/07/06 00:56:25;;;;;;;12.68;5.10;;;;;;;;;;5096100;28;20369;-66
2023/07/06 00:58:54;;;;;;;10.30;4.93;;;;;;;;;;5104045;28;20048;-66
2023/07/06 01:01:22;;;;;;;11.20;5.63;;;;;;;;;;5102651;28;20495;-66
2023/07/06 01:03:55;;;;;;;11.25;6.07;;;;;;;;;;5097185;28;20554;-66
2023/07/06 01:06:30;;;;;;;8.75;5.90;;;;;;;;;;5094620;28;20414;-66
2023/07/06 01:08:57;;;;;;;10.77;6.05;;;;;;;;;;5098061;28;20077;-66
2023/07/06 01:11:24;;;;;;;15.52;6.30;;;;;;;;;;5097048;28;20093;-66
2023/07/06 01:13:54;;;;;;;16.17;6.57;;;;;;;;;;5101188;28;20490;-66
2023/07/06 01:16:37;;;;;;;11.02;6.68;;;;;;;;;;5098411;28;20047;-66
2023/07/06 01:19:22;;;;;;;11.13;6.72;;;;;;;;;;5126596;27;20142;-66
2023/07/06 01:21:49;;;;;;;11.13;6.75;;;;;;;;;;5099472;28;20048;-66
2023/07/06 01:24:18;;;;;;;13.48;6.72;;;;;;;;;;5100395;28;20051;-66
2023/07/06 01:27:20;;;;;;;8.82;6.78;;;;;;;;;;5099893;28;20044;-66
2023/07/06 01:30:02;;;;;;;11.68;7.25;;;;;;;;;;5037932;28;20057;-66
2023/07/06 01:32:32;;;;;;;11.18;7.07;;;;;;;;;;5092462;28;20130;-66
2023/07/06 01:35:01;;;;;;;12.27;7.95;;;;;;;;;;5101662;28;20046;-66
2023/07/06 01:37:31;;;;;;;11.95;7.50;;;;;;;;;;5102469;28;20118;-66
2023/07/06 01:39:59;;;;;;;12.77;7.15;;;;;;;;;;5103321;28;20490;-66
2023/07/06 01:42:29;;;;;;;13.27;6.72;;;;;;;;;;5109315;28;20032;-66
2023/07/06 01:44:57;;;;;;;9.68;6.80;;;;;;;;;;5107290;28;20098;-66
2023/07/06 01:47:24;;;;;;;13.98;7.38;;;;;;;;;;5106139;28;20130;-66
2023/07/06 01:49:51;;;;;;;8.35;6.03;;;;;;;;;;5123861;27;20048;-66
2023/07/06 01:52:33;;;;;;;14.60;6.85;;;;;;;;;;5132585;27;20058;-66
2023/07/06 01:55:09;;;;;;;15.95;7.43;;;;;;;;;;5104194;28;20100;-66
2023/07/06 01:57:59;;;;;;;8.40;6.80;;;;;;;;;;5100039;28;20066;-66
2023/07/06 02:00:26;;;;;;;13.80;7.40;;;;;;;;;;5101186;28;20126;-66
2023/07/06 02:02:52;;;;;;;15.30;7.03;;;;;;;;;;5100977;27;20135;-66
2023/07/06 02:05:23;;;;;;;13.75;7.65;;;;;;;;;;5100722;28;20056;-66
2023/07/06 02:07:49;;;;;;;14.98;7.60;;;;;;;;;;5108029;28;20043;-66
2023/07/06 02:10:17;;;;;;;9.80;6.85;;;;;;;;;;5109350;28;20053;-66
2023/07/06 02:12:47;;;;;;;11.35;6.45;;;;;;;;;;5105572;28;20036;-66
2023/07/06 02:15:16;;;;;;;8.18;6.20;;;;;;;;;;5106479;28;20039;-66
2023/07/06 02:17:43;;;;;;;11.30;7.68;;;;;;;;;;5107970;28;20044;-66
2023/07/06 02:20:11;;;;;;;9.48;6.13;;;;;;;;;;5110292;27;20039;-66
2023/07/06 02:22:39;;;;;;;10.82;5.97;;;;;;;;;;5101868;28;20047;-66
2023/07/06 02:25:06;;;;;;;12.93;6.05;;;;;;;;;;5099069;27;20471;-66
2023/07/06 02:27:32;;;;;;;10.43;5.85;;;;;;;;;;5098911;28;20062;-66
2023/07/06 02:30:02;;;;;;;11.55;5.82;;;;;;;;;;5098052;27;20174;-66
2023/07/06 02:32:29;;;;;;;12.60;6.22;;;;;;;;;;5100521;28;20143;-66
2023/07/06 02:34:55;;;;;;;10.70;6.15;;;;;;;;;;5098003;27;20039;-66
2023/07/06 02:37:23;;;;;;;10.20;5.85;;;;;;;;;;5100624;27;20055;-66
2023/07/06 02:39:52;;;;;;;9.93;5.60;;;;;;;;;;5102132;28;20074;-66
2023/07/06 02:42:19;;;;;;;11.50;6.22;;;;;;;;;;5106950;28;20084;-66
2023/07/06 02:44:45;;;;;;;12.57;5.57;;;;;;;;;;5105297;27;20035;-66
2023/07/06 02:47:11;;;;;;;10.63;5.43;;;;;;;;;;5100576;28;21086;-66
2023/07/06 02:49:37;;;;;;;10.77;5.75;;;;;;;;;;5100281;28;20103;-66
2023/07/06 02:52:04;;;;;;;7.75;5.07;;;;;;;;;;5101143;27;20043;-66
2023/07/06 02:54:32;;;;;;;9.40;5.47;;;;;;;;;;5105833;28;20047;-66
2023/07/06 02:57:00;;;;;;;11.25;5.85;;;;;;;;;;5106616;28;20162;-66
2023/07/06 02:59:30;;;;;;;8.70;5.28;;;;;;;;;;5102087;27;20063;-66
2023/07/06 03:01:57;;;;;;;9.50;5.00;;;;;;;;;;5098652;28;20552;-66
2023/07/06 03:04:25;;;;;;;9.00;4.60;;;;;;;;;;5102568;28;20173;-66
2023/07/06 03:06:55;;;;;;;8.23;5.63;;;;;;;;;;5102743;28;20044;-66
2023/07/06 03:09:22;;;;;;;8.55;5.88;;;;;;;;;;5103513;28;20047;-66
2023/07/06 03:11:49;;;;;;;8.70;5.20;;;;;;;;;;5098561;28;20055;-66
2023/07/06 03:14:15;;;;;;;8.05;5.32;;;;;;;;;;5101004;28;20052;-66
2023/07/06 03:16:42;;;;;;;9.52;6.00;;;;;;;;;;5105376;28;20051;-66
2023/07/06 03:19:10;;;;;;;10.65;5.82;;;;;;;;;;5103985;28;20093;-66
2023/07/06 03:21:39;;;;;;;11.05;5.15;;;;;;;;;;5102404;28;20092;-66
2023/07/06 03:24:09;;;;;;;12.48;5.30;;;;;;;;;;5129941;27;20047;-66
2023/07/06 03:26:36;;;;;;;8.75;5.28;;;;;;;;;;5097702;27;20237;-66
2023/07/06 03:29:04;;;;;;;9.07;5.15;;;;;;;;;;5132064;27;20059;-66
2023/07/06 03:31:32;;;;;;;11.73;5.57;;;;;;;;;;5096959;28;20178;-66
2023/07/06 03:33:58;;;;;;;9.38;5.30;;;;;;;;;;5096583;27;20062;-66
2023/07/06 03:36:25;;;;;;;8.43;5.25;;;;;;;;;;5099740;28;20043;-66
2023/07/06 03:38:51;;;;;;;10.70;6.40;;;;;;;;;;5097293;27;20108;-66
2023/07/06 03:41:18;;;;;;;11.27;6.90;;;;;;;;;;5099069;27;20108;-66
2023/07/06 03:43:45;;;;;;;12.32;7.07;;;;;;;;;;5115911;27;21832;-66
2023/07/06 03:46:14;;;;;;;15.15;8.38;;;;;;;;;;5095425;28;20052;-66
2023/07/06 03:48:43;;;;;;;14.07;8.38;;;;;;;;;;5098707;28;20437;-66
2023/07/06 03:51:14;;;;;;;15.88;8.77;;;;;;;;;;5100390;28;20101;-66
2023/07/06 03:53:40;;;;;;;13.10;8.25;;;;;;;;;;5100009;28;20364;-66
2023/07/06 03:56:07;;;;;;;16.73;9.02;;;;;;;;;;5098670;28;20104;-66
2023/07/06 03:58:34;;;;;;;18.13;9.18;;;;;;;;;;5101032;28;20057;-66
2023/07/06 04:01:00;;;;;;;19.80;9.35;;;;;;;;;;5106411;27;20502;-66
2023/07/06 04:03:26;;;;;;;14.23;8.60;;;;;;;;;;5102184;28;20044;-66
2023/07/06 04:05:53;;;;;;;15.45;8.93;;;;;;;;;;5098187;28;20044;-66
2023/07/06 04:08:21;;;;;;;17.25;8.75;;;;;;;;;;5098975;28;20400;-66
2023/07/06 04:10:48;;;;;;;17.35;8.15;;;;;;;;;;5127606;27;20044;-66
2023/07/06 04:13:15;;;;;;;15.75;8.43;;;;;;;;;;5102125;27;20047;-66
2023/07/06 04:15:46;;;;;;;14.52;9.05;;;;;;;;;;5099229;28;20067;-66
2023/07/06 04:18:15;;;;;;;16.80;8.88;;;;;;;;;;5101472;27;20055;-66
2023/07/06 04:20:41;;;;;;;17.02;9.13;;;;;;;;;;5097235;28;20051;-67
2023/07/06 04:23:11;;;;;;;12.65;8.48;;;;;;;;;;5098278;28;20043;-66
2023/07/06 04:25:38;;;;;;;19.02;8.98;;;;;;;;;;5100989;28;20483;-66
2023/07/06 04:28:05;;;;;;;15.73;9.18;;;;;;;;;;5099923;27;20093;-66
2023/07/06 04:30:36;;;;;;;17.45;10.43;;;;;;;;;;5102091;28;20419;-66
2023/07/06 04:33:06;;;;;;;18.40;9.68;;;;;;;;;;5105336;28;20048;-66
2023/07/06 04:35:33;;;;;;;19.48;10.90;;;;;;;;;;5100246;27;20100;-64
2023/07/06 04:38:00;;;;;;;19.75;12.07;;;;;;;;;;5097119;28;20157;-67
2023/07/06 04:40:26;;;;;;;20.90;12.73;;;;;;;;;;5095249;28;20039;-67
2023/07/06 04:42:54;;;;;;;21.52;12.85;;;;;;;;;;5094215;28;20040;-67
2023/07/06 04:45:21;;;;;;;27.48;13.45;;;;;;;;;;5095813;28;20082;-67
2023/07/06 04:47:48;;;;;;;24.75;13.43;;;;;;;;;;5098043;28;20468;-67
2023/07/06 04:50:25;;;;;;;25.67;13.45;;;;;;;;;;5102200;28;20047;-67
2023/07/06 04:52:53;;;;;;;26.90;13.63;;;;;;;;;;5101684;27;20059;-67
2023/07/06 04:55:23;;;;;;;24.58;14.52;;;;;;;;;;5104752;28;20124;-67
2023/07/06 04:57:54;;;;;;;25.15;14.38;;;;;;;;;;5101665;28;20731;-67
2023/07/06 05:00:26;;;;;;;28.42;14.25;;;;;;;;;;5097535;28;20471;-64
2023/07/06 05:02:58;;;;;;;22.70;13.45;;;;;;;;;;5100664;28;20043;-64
2023/07/06 05:05:26;;;;;;;28.63;15.25;;;;;;;;;;5106020;27;20590;-69
2023/07/06 05:07:53;;;;;;;31.88;17.02;;;;;;;;;;5132642;27;20043;-65
2023/07/06 05:10:20;;;;;;;33.63;16.65;;;;;;;;;;5102968;28;20055;-68
2023/07/06 05:12:46;;;;;;;33.90;16.88;;;;;;;;;;5134532;27;20047;-67
2023/07/06 05:15:14;;;;;;;32.85;16.55;;;;;;;;;;5110556;28;20043;-67
2023/07/06 05:17:40;;;;;;;41.58;18.08;;;;;;;;;;5109722;28;20044;-67
2023/07/06 05:20:08;;;;;;;32.03;16.65;;;;;;;;;;5108995;28;20079;-68
2023/07/06 05:22:39;;;;;;;31.55;17.08;;;;;;;;;;5104911;28;20054;-68
2023/07/06 05:25:10;;;;;;;36.42;16.95;;;;;;;;;;5104927;28;20086;-68
2023/07/06 05:27:36;;;;;;;31.33;16.58;;;;;;;;;;5099865;28;20052;-65
2023/07/06 05:30:04;;;;;;;34.55;16.73;;;;;;;;;;5109576;28;20571;-68
2023/07/06 05:32:30;;;;;;;33.53;18.00;;;;;;;;;;5112182;28;20084;-66
2023/07/06 05:34:57;;;;;;;35.90;17.40;;;;;;;;;;5110093;28;20047;-65
2023/07/06 05:37:23;;;;;;;36.38;17.40;;;;;;;;;;5111246;28;20039;-65
2023/07/06 05:39:50;;;;;;;38.20;18.88;;;;;;;;;;5101200;28;20048;-66
2023/07/06 05:42:17;;;;;;;44.45;19.52;;;;;;;;;;5107085;28;20078;-66
2023/07/06 05:44:44;;;;;;;38.05;19.52;;;;;;;;;;5103023;28;20048;-66
2023/07/06 05:47:11;;;;;;;37.72;20.08;;;;;;;;;;5106512;28;20491;-66
2023/07/06 05:49:37;;;;;;;43.80;20.63;;;;;;;;;;5104364;28;20078;-66
2023/07/06 05:52:04;;;;;;;35.95;20.17;;;;;;;;;;5106482;28;20031;-66
2023/07/06 05:54:30;;;;;;;39.95;19.23;;;;;;;;;;5104086;28;20036;-66
2023/07/06 05:56:58;;;;;;;36.25;18.65;;;;;;;;;;5106389;28;20048;-66
2023/07/06 05:59:27;;;;;;;37.58;18.02;;;;;;;;;;5101772;28;20051;-66
2023/07/06 06:01:53;;;;;;;42.28;18.65;;;;;;;;;;5106250;28;20574;-66
2023/07/06 06:04:19;;;;;;;41.42;17.05;;;;;;;;;;5109954;28;20092;-66
2023/07/06 06:06:47;;;;;;;47.55;19.48;;;;;;;;;;5110458;28;20047;-66
2023/07/06 06:09:13;;;;;;;37.25;17.23;;;;;;;;;;5111842;28;20071;-66
2023/07/06 06:11:39;;;;;;;34.08;16.70;;;;;;;;;;5116246;27;20220;-66
2023/07/06 06:14:05;;;;;;;35.00;16.05;;;;;;;;;;5122500;27;20050;-66
2023/07/06 06:16:32;;;;;;;25.77;15.60;;;;;;;;;;5103815;27;20043;-66
2023/07/06 06:19:00;;;;;;;28.23;13.95;;;;;;;;;;5101394;28;20093;-66
2023/07/06 06:21:29;;;;;;;35.83;15.15;;;;;;;;;;5117367;27;20046;-79
2023/07/06 06:23:57;;;;;;;31.52;13.68;;;;;;;;;;5117552;27;20047;-66
2023/07/06 06:26:23;;;;;;;31.98;13.88;;;;;;;;;;5114604;28;20040;-66
2023/07/06 06:28:50;;;;;;;25.98;11.80;;;;;;;;;;5114129;27;20075;-66
2023/07/06 06:31:16;;;;;;;21.80;10.35;;;;;;;;;;5114348;28;20036;-66
2023/07/06 06:33:44;;;;;;;20.50;10.07;;;;;;;;;;5111438;27;20756;-66
2023/07/06 06:36:12;;;;;;;26.08;10.43;;;;;;;;;;5113292;27;20426;-66
2023/07/06 06:38:38;;;;;;;28.95;10.30;;;;;;;;;;5112917;27;20058;-65
2023/07/06 06:41:07;;;;;;;24.73;11.13;;;;;;;;;;5113453;27;20043;-67
2023/07/06 06:43:40;;;;;;;25.88;11.02;;;;;;;;;;5113299;27;20039;-65
2023/07/06 06:46:07;;;;;;;27.80;11.70;;;;;;;;;;5116517;27;20102;-67
2023/07/06 06:48:34;;;;;;;26.67;11.38;;;;;;;;;;5114093;28;20039;-68
2023/07/06 06:51:00;;;;;;;23.08;10.55;;;;;;;;;;5112999;27;20462;-68
2023/07/06 06:53:27;;;;;;;23.63;9.35;;;;;;;;;;5113161;28;20055;-68
2023/07/06 06:55:54;;;;;;;14.50;8.00;;;;;;;;;;5112568;28;20043;-68
2023/07/06 06:58:23;;;;;;;15.40;7.15;;;;;;;;;;5114238;28;20044;-68
2023/07/06 07:00:59;;;;;;;13.38;5.68;;;;;;;;;;5109202;28;20055;-68
2023/07/06 07:03:28;;;;;;;13.52;4.57;;;;;;;;;;5112661;27;20063;-68
2023/07/06 07:05:59;;;;;;;10.95;4.85;;;;;;;;;;5114486;28;20103;-68
2023/07/06 07:08:26;;;;;;;12.75;3.85;;;;;;;;;;5111523;28;20950;-68
2023/07/06 07:10:58;;;;;;;11.00;3.92;;;;;;;;;;5112674;28;20044;-68
2023/07/06 07:13:26;;;;;;;7.90;3.00;;;;;;;;;;5112964;28;20464;-68
2023/07/06 07:15:53;;;;;;;12.80;4.25;;;;;;;;;;5113242;28;20040;-68
2023/07/06 07:18:21;;;;;;;9.27;3.42;;;;;;;;;;5113004;28;20490;-68
2023/07/06 07:20:52;;;;;;;14.80;3.45;;;;;;;;;;5113243;28;20054;-68
2023/07/06 07:23:22;;;;;;;9.98;3.35;;;;;;;;;;5112246;28;20047;-68
2023/07/06 07:25:48;;;;;;;10.07;2.50;;;;;;;;;;5112844;28;20135;-68
2023/07/06 07:28:18;;;;;;;9.30;2.85;;;;;;;;;;5114171;28;20506;-68
2023/07/06 07:31:06;;;;;;;10.55;3.72;;;;;;;;;;5112940;28;20503;-68
2023/07/06 07:33:33;;;;;;;7.38;2.28;;;;;;;;;;5112453;27;20058;-68
2023/07/06 07:36:00;;;;;;;14.70;2.30;;;;;;;;;;5113304;28;20453;-68
2023/07/06 07:38:26;;;;;;;6.75;1.80;;;;;;;;;;5099480;28;20504;-68
2023/07/06 07:40:55;;;;;;;7.85;1.70;;;;;;;;;;5113548;28;20039;-68
2023/07/06 07:43:25;;;;;;;6.03;1.70;;;;;;;;;;5111281;28;20096;-68
2023/07/06 07:45:55;;;;;;;5.97;1.63;;;;;;;;;;5112421;28;20062;-68
2023/07/06 07:48:25;;;;;;;6.90;2.10;;;;;;;;;;5111526;27;20123;-68
2023/07/06 07:50:53;;;;;;;5.28;1.58;;;;;;;;;;5111020;28;20101;-68
2023/07/06 07:53:22;;;;;;;3.53;1.33;;;;;;;;;;5112270;28;20051;-68
2023/07/06 07:55:49;;;;;;;5.75;1.30;;;;;;;;;;5113307;28;20079;-68
2023/07/06 07:58:15;;;;;;;4.55;1.40;;;;;;;;;;5112295;28;20089;-68
2023/07/06 08:00:47;;;;;;;4.45;1.73;;;;;;;;;;5111416;28;20086;-68
2023/07/06 08:03:13;;;;;;;4.13;1.30;;;;;;;;;;5113170;28;20079;-68
2023/07/06 08:05:40;;;;;;;4.65;1.75;;;;;;;;;;5111020;28;20558;-68
2023/07/06 08:08:07;;;;;;;4.53;1.30;;;;;;;;;;5112028;28;20174;-68
2023/07/06 08:10:39;;;;;;;10.05;2.08;;;;;;;;;;5111772;28;20483;-68
2023/07/06 08:13:07;;;;;;;5.90;1.30;;;;;;;;;;5112168;28;20052;-68
2023/07/06 08:15:33;;;;;;;5.15;1.95;;;;;;;;;;5107234;28;20048;-68
2023/07/06 08:18:00;;;;;;;5.65;1.90;;;;;;;;;;5112579;28;20043;-68
2023/07/06 08:20:30;;;;;;;6.25;2.10;;;;;;;;;;5110624;28;20086;-68
2023/07/06 08:23:00;;;;;;;5.68;1.70;;;;;;;;;;5107802;27;20043;-68
2023/07/06 08:25:28;;;;;;;4.78;1.60;;;;;;;;;;5128571;27;20433;-68
2023/07/06 08:27:57;;;;;;;6.85;1.60;;;;;;;;;;5112211;28;20347;-68
2023/07/06 08:30:23;;;;;;;7.00;2.55;;;;;;;;;;5112517;28;20445;-68
2023/07/06 08:32:50;;;;;;;6.85;1.63;;;;;;;;;;5111264;28;20047;-68
2023/07/06 08:35:20;;;;;;;10.77;2.85;;;;;;;;;;5111031;28;20082;-68
2023/07/06 08:37:46;;;;;;;6.97;1.75;;;;;;;;;;5112794;27;20077;-68
2023/07/06 08:40:14;;;;;;;5.35;1.58;;;;;;;;;;5110624;28;20039;-68
2023/07/06 08:42:50;;;;;;;5.22;1.65;;;;;;;;;;5112622;28;20044;-68
2023/07/06 08:45:21;;;;;;;5.70;1.90;;;;;;;;;;5111012;28;20396;-68
2023/07/06 08:47:48;;;;;;;7.28;1.60;;;;;;;;;;5110003;28;20048;-68
2023/07/06 08:50:15;;;;;;;7.80;1.30;;;;;;;;;;5112007;28;20407;-68
2023/07/06 08:52:43;;;;;;;6.63;2.05;;;;;;;;;;5101494;28;20142;-68
2023/07/06 08:55:13;;;;;;;5.15;1.42;;;;;;;;;;5110180;28;20043;-68
2023/07/06 08:57:40;;;;;;;7.97;1.70;;;;;;;;;;5111048;28;20479;-68
2023/07/06 09:00:28;;;;;;;5.55;1.77;;;;;;;;;;5125242;27;20044;-68
2023/07/06 09:02:56;;;;;;;4.32;1.45;;;;;;;;;;5111653;28;20113;-68
2023/07/06 09:05:22;;;;;;;6.55;1.98;;;;;;;;;;5110678;28;20140;-68
2023/07/06 09:07:49;;;;;;;8.30;1.70;;;;;;;;;;5110108;28;20467;-68
2023/07/06 09:10:15;;;;;;;4.05;1.17;;;;;;;;;;5110697;28;20050;-68
2023/07/06 09:12:41;;;;;;;6.15;1.38;;;;;;;;;;5097944;28;20406;-68
2023/07/06 09:15:08;;;;;;;4.30;1.52;;;;;;;;;;5111402;28;20101;-68
2023/07/06 09:17:35;;;;;;;5.47;1.60;;;;;;;;;;5111591;28;20553;-68
2023/07/06 09:20:06;;;;;;;5.13;1.73;;;;;;;;;;5108476;28;20089;-68
2023/07/06 09:22:32;;;;;;;5.13;1.35;;;;;;;;;;5109710;28;20086;-68
2023/07/06 09:25:05;;;;;;;10.15;1.67;;;;;;;;;;5110775;28;20135;-68
2023/07/06 09:27:32;;;;;;;6.70;1.75;;;;;;;;;;5110507;28;20066;-68
2023/07/06 09:30:00;;;;;;;9.90;2.08;;;;;;;;;;5110088;28;20047;-68
2023/07/06 09:32:27;;;;;;;3.95;1.73;;;;;;;;;;5112108;28;20170;-68
2023/07/06 09:34:56;;;;;;;5.15;1.30;;;;;;;;;;5110305;28;20131;-68
2023/07/06 09:37:23;;;;;;;5.55;1.23;;;;;;;;;;5108844;28;20098;-68
2023/07/06 09:39:58;;;;;;;5.50;1.80;;;;;;;;;;5108983;28;20048;-68
2023/07/06 09:42:25;;;;;;;3.40;1.40;;;;;;;;;;5107200;28;20039;-67
2023/07/06 09:44:52;;;;;;;5.90;1.58;;;;;;;;;;5106217;28;20483;-68
2023/07/06 09:47:18;;;;;;;7.40;2.05;;;;;;;;;;5105716;27;20108;-68
2023/07/06 09:50:07;;;;;;;4.85;1.58;;;;;;;;;;5112947;27;20115;-68
2023/07/06 09:52:37;;;;;;;3.67;1.27;;;;;;;;;;5107056;27;20093;-68
2023/07/06 09:55:12;;;;;;;4.15;1.10;;;;;;;;;;5115693;28;20083;-68
2023/07/06 09:57:40;;;;;;;4.65;1.55;;;;;;;;;;5113523;28;20052;-68
2023/07/06 10:00:13;;;;;;;3.65;1.67;;;;;;;;;;5114271;28;20122;-68
2023/07/06 10:02:48;;;;;;;3.60;1.50;;;;;;;;;;5115275;27;20043;-68
2023/07/06 10:05:17;;;;;;;5.18;1.35;;;;;;;;;;5114516;28;20043;-68
2023/07/06 10:07:52;;;;;;;6.03;1.60;;;;;;;;;;5114412;28;20182;-68
2023/07/06 10:10:20;;;;;;;4.18;1.38;;;;;;;;;;5114369;28;20488;-68
2023/07/06 10:12:52;;;;;;;6.47;1.52;;;;;;;;;;5114656;27;20043;-68
2023/07/06 10:15:27;;;;;;;6.55;1.58;;;;;;;;;;5112694;27;20143;-68
2023/07/06 10:18:00;;;;;;;6.38;1.40;;;;;;;;;;5115237;28;20047;-68
2023/07/06 10:20:59;;;;;;;6.50;1.50;;;;;;;;;;5114463;27;20051;-67
2023/07/06 10:23:32;;;;;;;8.48;1.83;;;;;;;;;;5063159;28;20039;-68
2023/07/06 10:26:17;;;;;;;10.48;2.08;;;;;;;;;;5113195;27;20098;-68
2023/07/06 10:28:47;;;;;;;6.90;2.00;;;;;;;;;;5114826;28;20055;-68
2023/07/06 10:31:16;;;;;;;7.45;2.15;;;;;;;;;;5114094;28;20039;-68
2023/07/06 10:33:54;;;;;;;5.18;2.13;;;;;;;;;;5115316;27;20078;-68
2023/07/06 10:36:22;;;;;;;5.32;1.95;;;;;;;;;;5112812;27;20042;-68
2023/07/06 10:38:48;;;;;;;5.07;2.00;;;;;;;;;;5115095;28;20036;-68
2023/07/06 10:41:14;;;;;;;4.50;1.90;;;;;;;;;;5112791;28;20154;-68
2023/07/06 10:43:43;;;;;;;6.15;2.28;;;;;;;;;;5116450;27;20160;-68
2023/07/06 10:46:28;;;;;;;7.97;2.03;;;;;;;;;;5113769;28;20043;-68
2023/07/06 10:48:57;;;;;;;7.43;2.10;;;;;;;;;;5115018;28;20051;-68
2023/07/06 10:51:25;;;;;;;6.57;2.20;;;;;;;;;;5114333;28;20122;-68
2023/07/06 10:54:11;;;;;;;5.07;1.80;;;;;;;;;;5113239;28;20086;-68
2023/07/06 10:56:43;;;;;;;5.70;2.25;;;;;;;;;;5114007;28;20058;-68
2023/07/06 10:59:18;;;;;;;8.32;2.10;;;;;;;;;;5114867;28;20039;-68
2023/07/06 11:01:45;;;;;;;10.02;2.40;;;;;;;;;;5113242;27;20505;-68
2023/07/06 11:04:30;;;;;;;8.35;2.67;;;;;;;;;;5110053;28;20479;-68
2023/07/06 11:06:56;;;;;;;4.20;1.92;;;;;;;;;;5114209;28;20538;-68
2023/07/06 11:09:23;;;;;;;7.15;2.28;;;;;;;;;;5113023;27;20040;-68
2023/07/06 11:11:49;;;;;;;6.15;1.55;;;;;;;;;;5113837;28;20039;-67
2023/07/06 11:14:38;;;;;;;3.40;1.67;;;;;;;;;;5114794;27;20040;-65
2023/07/06 11:17:21;;;;;;;5.95;1.25;;;;;;;;;;5114395;28;20047;-67
2023/07/06 11:19:50;;;;;;;4.97;1.20;;;;;;;;;;5114284;28;20046;-66
2023/07/06 11:22:18;;;;;;;7.70;1.40;;;;;;;;;;5113742;27;20122;-68
2023/07/06 11:24:48;;;;;;;5.20;1.38;;;;;;;;;;5115485;27;20437;-68
2023/07/06 11:27:37;;;;;;;4.93;1.20;;;;;;;;;;5114231;28;20043;-68
2023/07/06 11:30:10;;;;;;;5.00;1.40;;;;;;;;;;5101796;28;20532;-68
2023/07/06 11:32:36;;;;;;;;;;;;;;;;;;5114096;28;20112;-68
2023/07/06 11:35:19;;;;;;;5.03;1.65;;;;;;;;;;5115330;27;19963;-68
2023/07/06 11:37:54;;;;;;;7.53;1.92;;;;;;;;;;5113515;28;20100;-68
2023/07/06 11:40:33;;;;;;;6.05;1.77;;;;;;;;;;5123431;27;20044;-68
2023/07/06 11:43:18;;;;;;;7.57;1.73;;;;;;;;;;5113797;27;20095;-68
2023/07/06 11:46:05;;;;;;;6.25;1.75;;;;;;;;;;5112084;27;20063;-68
2023/07/06 11:48:32;;;;;;;10.38;1.65;;;;;;;;;;5100367;28;20054;-68
2023/07/06 11:51:00;;;;;;;3.22;1.17;;;;;;;;;;5112554;28;20077;-68
2023/07/06 11:53:32;;;;;;;3.90;1.17;;;;;;;;;;5114495;27;20061;-68
2023/07/06 11:56:18;;;;;;;3.42;1.50;;;;;;;;;;5112059;28;20048;-68
2023/07/06 11:58:55;;;;;;;4.30;1.27;;;;;;;;;;5112456;28;20097;-68
2023/07/06 12:01:42;;;;;;;4.07;1.42;;;;;;;;;;5100984;28;20112;-68
2023/07/06 12:04:12;;;;;;;5.25;1.58;;;;;;;;;;5107144;27;20077;-68
2023/07/06 12:06:39;;;;;;;6.18;1.45;;;;;;;;;;5112761;28;20050;-68
2023/07/06 12:09:06;;;;;;;5.68;1.38;;;;;;;;;;5113031;28;20031;-68
2023/07/06 12:11:33;;;;;;;7.03;1.33;;;;;;;;;;5112487;28;20040;-68
2023/07/06 12:13:59;;;;;;;5.40;1.50;;;;;;;;;;5121928;27;20498;-68
2023/07/06 12:16:27;;;;;;;5.78;1.23;;;;;;;;;;5112043;28;20040;-68
2023/07/06 12:18:55;;;;;;;4.72;1.70;;;;;;;;;;5109954;28;20495;-68
2023/07/06 12:21:41;;;;;;;5.20;1.60;;;;;;;;;;5111040;28;20122;-68
2023/07/06 12:24:12;;;;;;;2.58;0.98;;;;;;;;;;5108150;28;20035;-68
2023/07/06 12:26:42;;;;;;;4.15;1.20;;;;;;;;;;5112237;28;20537;-68
2023/07/06 12:29:09;;;;;;;4.80;1.10;;;;;;;;;;5110910;28;20051;-68
2023/07/06 12:31:37;;;;;;;4.80;1.30;;;;;;;;;;5112579;28;20031;-68
2023/07/06 12:34:04;;;;;;;3.83;1.40;;;;;;;;;;5104508;28;20491;-68
2023/07/06 12:36:33;;;;;;;12.68;1.63;;;;;;;;;;5098380;28;20478;-68
2023/07/06 12:39:00;;;;;;;4.07;1.33;;;;;;;;;;5111929;28;20566;-68
2023/07/06 12:41:27;;;;;;;3.28;1.00;;;;;;;;;;5111110;28;20328;-68
2023/07/06 12:43:55;;;;;;;6.38;1.77;;;;;;;;;;5110581;27;20048;-68
2023/07/06 12:46:22;;;;;;;4.82;1.50;;;;;;;;;;5109872;28;20086;-68
2023/07/06 12:48:51;;;;;;;4.38;1.20;;;;;;;;;;5112152;28;20047;-68
2023/07/06 12:51:21;;;;;;;6.03;1.40;;;;;;;;;;5110081;28;20495;-79
2023/07/06 12:53:49;;;;;;;4.63;1.60;;;;;;;;;;5105483;28;20403;-68
2023/07/06 12:56:17;;;;;;;8.75;1.80;;;;;;;;;;5112052;27;20498;-68
2023/07/06 12:58:47;;;;;;;5.10;1.48;;;;;;;;;;5112481;28;20035;-68
2023/07/06 13:01:20;;;;;;;7.05;1.75;;;;;;;;;;5111643;28;20447;-68
2023/07/06 13:03:48;;;;;;;3.65;1.60;;;;;;;;;;5102494;28;20564;-68
2023/07/06 13:06:15;;;;;;;6.43;1.88;;;;;;;;;;5112176;28;20054;-68
2023/07/06 13:08:43;;;;;;;7.10;1.65;;;;;;;;;;5111178;28;20048;-68
2023/07/06 13:11:09;;;;;;;5.45;1.50;;;;;;;;;;5111565;28;20110;-68
2023/07/06 13:13:36;;;;;;;4.30;1.42;;;;;;;;;;5110960;28;20065;-66
2023/07/06 13:16:06;;;;;;;5.65;1.58;;;;;;;;;;5111136;28;20039;-66
2023/07/06 13:18:32;;;;;;;3.97;1.45;;;;;;;;;;5110929;28;20048;-66
2023/07/06 13:21:00;;;;;;;4.32;1.55;;;;;;;;;;5109087;28;20119;-66
2023/07/06 13:23:28;;;;;;;5.18;1.50;;;;;;;;;;5110851;28;20442;-66
2023/07/06 13:25:55;;;;;;;5.72;1.50;;;;;;;;;;5111816;28;20083;-65
2023/07/06 13:28:23;;;;;;;4.53;1.27;;;;;;;;;;5111492;28;20035;-66
2023/07/06 13:30:50;;;;;;;4.63;1.25;;;;;;;;;;5111301;28;20055;-66
2023/07/06 13:33:18;;;;;;;4.60;1.45;;;;;;;;;;5126637;28;20043;-65
2023/07/06 13:35:44;;;;;;;3.72;1.38;;;;;;;;;;5109659;28;20383;-66
2023/07/06 13:38:12;;;;;;;4.63;1.55;;;;;;;;;;5093650;28;20035;-66
2023/07/06 13:40:39;;;;;;;4.88;1.58;;;;;;;;;;5111932;28;20441;-66
2023/07/06 13:43:09;;;;;;;5.88;1.63;;;;;;;;;;5111018;28;20046;-66
2023/07/06 13:45:37;;;;;;;6.05;1.50;;;;;;;;;;5111490;28;20112;-66
2023/07/06 13:48:04;;;;;;;3.25;1.10;;;;;;;;;;5111449;28;20491;-66
2023/07/06 13:50:31;;;;;;;6.15;1.63;;;;;;;;;;5111391;28;20040;-66
2023/07/06 13:52:58;;;;;;;5.97;1.45;;;;;;;;;;5109534;28;20387;-66
2023/07/06 13:55:27;;;;;;;4.30;1.35;;;;;;;;;;5109850;28;20054;-66
2023/07/06 13:57:53;;;;;;;4.63;1.48;;;;;;;;;;5108805;28;20078;-66
2023/07/06 14:00:19;;;;;;;7.90;2.08;;;;;;;;;;5113101;28;20036;-65
2023/07/06 14:02:49;;;;;;;5.40;1.95;;;;;;;;;;5111708;28;20505;-66
2023/07/06 14:05:22;;;;;;;4.63;1.63;;;;;;;;;;5109480;28;20487;-66
2023/07/06 14:07:51;;;;;;;4.32;1.58;;;;;;;;;;5110427;28;20099;-66
2023/07/06 14:10:18;;;;;;;4.88;1.83;;;;;;;;;;5108857;28;20040;-66
2023/07/06 14:12:49;;;;;;;6.45;3.17;;;;;;;;;;5111839;28;20043;-66
2023/07/06 14:15:18;;;;;;;4.72;1.40;;;;;;;;;;5109755;28;20483;-66
2023/07/06 14:17:44;;;;;;;7.45;2.30;;;;;;;;;;5110403;28;20061;-66
2023/07/06 14:20:11;;;;;;;4.97;1.50;;;;;;;;;;5109842;28;20424;-66
2023/07/06 14:22:37;;;;;;;7.70;2.10;;;;;;;;;;5110714;28;20040;-66
2023/07/06 14:25:11;;;;;;;7.47;1.80;;;;;;;;;;5108667;28;20108;-66
2023/07/06 14:27:37;;;;;;;7.07;1.17;;;;;;;;;;5111305;28;20127;-66
2023/07/06 14:30:03;;;;;;;5.57;1.90;;;;;;;;;;5111052;28;20039;-66
2023/07/06 14:32:30;;;;;;;7.53;1.70;;;;;;;;;;5113023;27;20046;-66
2023/07/06 14:34:56;;;;;;;6.95;1.80;;;;;;;;;;5113690;27;20051;-68
2023/07/06 14:37:22;;;;;;;7.88;1.80;;;;;;;;;;5113605;28;20135;-68
2023/07/06 14:39:48;;;;;;;5.50;1.90;;;;;;;;;;5112709;28;20100;-67
2023/07/06 14:42:14;;;;;;;7.15;2.03;;;;;;;;;;5113932;28;20067;-68
2023/07/06 14:44:41;;;;;;;7.05;1.80;;;;;;;;;;5112770;28;20040;-68
2023/07/06 14:47:07;;;;;;;5.95;1.60;;;;;;;;;;5113537;28;20064;-67
2023/07/06 14:49:34;;;;;;;6.82;1.58;;;;;;;;;;5113151;27;20058;-75